Time,TemperatureF,DewpointF,PressureIn,WindDirection,WindDirectionDegrees,WindSpeedMPH,WindSpeedGustMPH,Humidity,HourlyPrecipIn,Conditions,Clouds,dailyrainin,SolarRadiationWatts/m^2,SoftwareType,DateUTC
2013-07-14 00:02:00,51.0,50.0,-100.00,NNE,16,5.0,11.0,98,0.00,,,0.00,0.000000,,2013-07-14 07:02:00,
2013-07-14 00:11:00,51.0,50.0,-100.00,NNE,16,5.0,11.0,98,0.00,,,0.00,0.000000,,2013-07-14 07:11:00,
2013-07-14 00:43:00,50.0,50.0,-100.00,NNE,23,6.0,10.0,99,0.00,,,0.00,0.000000,,2013-07-14 07:43:00,
2013-07-14 00:53:00,50.0,50.0,-100.00,NNE,23,6.0,10.0,99,0.00,,,0.00,0.000000,,2013-07-14 07:53:00,
2013-07-14 01:01:00,50.0,50.0,-100.00,NNE,23,6.0,10.0,99,0.00,,,0.00,0.000000,,2013-07-14 08:01:00,
2013-07-14 01:11:00,50.0,50.0,-100.00,NNE,23,6.0,10.0,99,0.00,,,0.00,0.000000,,2013-07-14 08:11:00,
2013-07-14 01:42:00,50.0,50.0,-100.00,NNE,21,5.0,10.0,100,0.00,,,0.00,0.000000,,2013-07-14 08:42:00,
2013-07-14 01:53:00,50.0,50.0,-100.00,NNE,21,5.0,10.0,100,0.00,,,0.00,0.000000,,2013-07-14 08:53:00,
2013-07-14 02:01:00,50.0,50.0,-100.00,NNE,21,5.0,10.0,100,0.00,,,0.00,0.000000,,2013-07-14 09:01:00,
2013-07-14 02:11:00,50.0,50.0,-100.00,NNE,21,5.0,10.0,100,0.00,,,0.00,0.000000,,2013-07-14 09:11:00,
2013-07-14 02:42:00,49.0,49.0,-100.00,NNE,21,5.0,10.0,100,0.00,,,0.00,0.000000,,2013-07-14 09:42:00,
2013-07-14 02:53:00,49.0,49.0,-100.00,NNE,21,5.0,10.0,100,0.00,,,0.00,0.000000,,2013-07-14 09:53:00,
2013-07-14 03:01:00,49.0,49.0,-100.00,NNE,21,5.0,10.0,100,0.00,,,0.00,0.000000,,2013-07-14 10:01:00,
2013-07-14 03:11:00,49.0,49.0,-100.00,NNE,21,5.0,10.0,100,0.00,,,0.00,0.000000,,2013-07-14 10:11:00,
2013-07-14 03:42:00,49.0,49.0,-100.00,NNE,27,4.0,9.0,100,0.00,,,0.00,0.000000,,2013-07-14 10:42:00,
2013-07-14 03:53:00,49.0,49.0,-100.00,NNE,27,4.0,9.0,100,0.00,,,0.00,0.000000,,2013-07-14 10:53:00,
2013-07-14 04:01:00,49.0,49.0,-100.00,NNE,27,4.0,9.0,100,0.00,,,0.00,0.000000,,2013-07-14 11:01:00,
2013-07-14 04:11:00,49.0,49.0,-100.00,NNE,27,4.0,9.0,100,0.00,,,0.00,0.000000,,2013-07-14 11:11:00,
2013-07-14 04:43:00,48.0,48.0,-100.00,NNE,20,4.0,7.0,100,0.00,,,0.00,0.000000,,2013-07-14 11:43:00,
2013-07-14 04:53:00,48.0,48.0,-100.00,NNE,20,4.0,7.0,100,0.00,,,0.00,0.000000,,2013-07-14 11:53:00,
2013-07-14 05:02:00,48.0,48.0,-100.00,NNE,20,4.0,7.0,100,0.00,,,0.00,0.000000,,2013-07-14 12:02:00,
2013-07-14 05:11:00,48.0,48.0,-100.00,NNE,20,4.0,7.0,100,0.00,,,0.00,0.000000,,2013-07-14 12:11:00,
2013-07-14 05:43:00,48.0,48.0,-100.00,NNE,30,4.0,8.0,100,0.00,,,0.00,0.000000,,2013-07-14 12:43:00,
2013-07-14 05:53:00,48.0,48.0,-100.00,NNE,30,4.0,8.0,100,0.00,,,0.00,0.000000,,2013-07-14 12:53:00,
2013-07-14 06:01:00,48.0,48.0,-100.00,NNE,30,4.0,8.0,100,0.00,,,0.00,0.000000,,2013-07-14 13:01:00,
2013-07-14 06:11:00,48.0,48.0,-100.00,NNE,30,4.0,8.0,100,0.00,,,0.00,0.000000,,2013-07-14 13:11:00,
2013-07-14 06:42:00,48.0,48.0,-100.00,NNE,28,3.0,6.0,100,0.00,,,0.00,2.000000,,2013-07-14 13:42:00,
2013-07-14 06:53:00,48.0,48.0,-100.00,NNE,28,3.0,6.0,100,0.00,,,0.00,2.000000,,2013-07-14 13:53:00,
2013-07-14 07:01:00,48.0,48.0,-100.00,NNE,28,3.0,6.0,100,0.00,,,0.00,2.000000,,2013-07-14 14:01:00,
2013-07-14 07:11:00,48.0,48.0,-100.00,NNE,28,3.0,6.0,100,0.00,,,0.00,2.000000,,2013-07-14 14:11:00,
2013-07-14 07:43:00,48.0,48.0,-100.00,NE,39,4.0,6.0,100,0.00,,,0.00,30.000000,,2013-07-14 14:43:00,
2013-07-14 07:53:00,48.0,48.0,-100.00,NE,39,4.0,6.0,100,0.00,,,0.00,30.000000,,2013-07-14 14:53:00,
2013-07-14 08:01:00,48.0,48.0,-100.00,NE,39,4.0,6.0,100,0.00,,,0.00,30.000000,,2013-07-14 15:01:00,
2013-07-14 08:11:00,48.0,48.0,-100.00,NE,39,4.0,6.0,100,0.00,,,0.00,30.000000,,2013-07-14 15:11:00,
2013-07-14 08:32:00,49.0,49.0,-100.00,NNE,28,4.0,6.0,100,0.00,,,0.00,104.000000,,2013-07-14 15:32:00,
2013-07-14 08:42:00,49.0,49.0,-100.00,NNE,28,4.0,6.0,100,0.00,,,0.00,104.000000,,2013-07-14 15:42:00,
2013-07-14 08:53:00,49.0,49.0,-100.00,NNE,28,4.0,6.0,100,0.00,,,0.00,104.000000,,2013-07-14 15:53:00,
2013-07-14 09:01:00,49.0,49.0,-100.00,NNE,28,4.0,6.0,100,0.00,,,0.00,104.000000,,2013-07-14 16:01:00,
2013-07-14 09:11:00,49.0,49.0,-100.00,NNE,28,4.0,6.0,100,0.00,,,0.00,104.000000,,2013-07-14 16:11:00,
2013-07-14 09:43:00,53.0,52.0,-100.00,NE,41,3.0,7.0,95,0.00,,,0.00,326.000000,,2013-07-14 16:43:00,
2013-07-14 09:53:00,53.0,52.0,-100.00,NE,41,3.0,7.0,95,0.00,,,0.00,326.000000,,2013-07-14 16:53:00,
2013-07-14 10:02:00,53.0,52.0,-100.00,NE,41,3.0,7.0,95,0.00,,,0.00,326.000000,,2013-07-14 17:02:00,
2013-07-14 10:11:00,53.0,52.0,-100.00,NE,41,3.0,7.0,95,0.00,,,0.00,326.000000,,2013-07-14 17:11:00,
2013-07-14 10:43:00,57.0,51.0,-100.00,NNE,21,5.0,8.0,80,0.00,,,0.00,726.000000,,2013-07-14 17:43:00,
2013-07-14 10:53:00,57.0,51.0,-100.00,NNE,21,5.0,8.0,80,0.00,,,0.00,726.000000,,2013-07-14 17:53:00,
2013-07-14 11:01:00,57.0,51.0,-100.00,NNE,21,5.0,8.0,80,0.00,,,0.00,726.000000,,2013-07-14 18:01:00,
2013-07-14 11:11:00,57.0,51.0,-100.00,NNE,21,5.0,8.0,80,0.00,,,0.00,726.000000,,2013-07-14 18:11:00,
2013-07-14 11:42:00,61.0,52.0,-100.00,NNE,24,4.0,8.0,73,0.00,,,0.00,879.000000,,2013-07-14 18:42:00,
2013-07-14 11:52:00,61.0,52.0,-100.00,NNE,24,4.0,8.0,73,0.00,,,0.00,879.000000,,2013-07-14 18:52:00,
2013-07-14 12:01:00,61.0,52.0,-100.00,NNE,24,4.0,8.0,73,0.00,,,0.00,879.000000,,2013-07-14 19:01:00,
2013-07-14 12:11:00,61.0,52.0,-100.00,NNE,24,4.0,8.0,73,0.00,,,0.00,879.000000,,2013-07-14 19:11:00,
2013-07-14 12:43:00,58.0,50.0,-100.00,NNE,19,7.0,11.0,76,0.00,,,0.00,982.000000,,2013-07-14 19:43:00,
2013-07-14 12:53:00,58.0,50.0,-100.00,NNE,19,7.0,11.0,76,0.00,,,0.00,982.000000,,2013-07-14 19:53:00,
2013-07-14 13:01:00,58.0,50.0,-100.00,NNE,19,7.0,11.0,76,0.00,,,0.00,982.000000,,2013-07-14 20:01:00,
2013-07-14 13:11:00,58.0,50.0,-100.00,NNE,19,7.0,11.0,76,0.00,,,0.00,982.000000,,2013-07-14 20:11:00,
2013-07-14 13:53:00,58.0,51.0,-100.00,NNE,21,7.0,13.0,77,-99.99,,,0.00,1012.000000,,2013-07-14 20:53:00,
2013-07-14 14:01:00,58.0,51.0,-100.00,NNE,21,7.0,13.0,77,-99.99,,,0.00,1012.000000,,2013-07-14 21:01:00,
2013-07-14 14:11:00,58.0,51.0,-100.00,NNE,21,7.0,13.0,77,-99.99,,,0.00,1012.000000,,2013-07-14 21:11:00,
2013-07-14 14:43:00,58.0,51.0,-100.00,NNE,18,8.0,16.0,77,-99.99,,,0.00,1024.000000,,2013-07-14 21:43:00,
2013-07-14 14:52:00,58.0,51.0,-100.00,NNE,18,8.0,16.0,77,-99.99,,,0.00,1024.000000,,2013-07-14 21:52:00,
2013-07-14 15:01:00,58.0,51.0,-100.00,NNE,18,8.0,16.0,77,-99.99,,,0.00,1024.000000,,2013-07-14 22:01:00,
2013-07-14 15:11:00,58.0,51.0,-100.00,NNE,18,8.0,16.0,77,-99.99,,,0.00,1024.000000,,2013-07-14 22:11:00,
2013-07-14 15:32:00,58.0,52.0,-100.00,NNE,17,8.0,17.0,79,0.00,,,0.00,959.000000,,2013-07-14 22:32:00,
2013-07-14 15:42:00,58.0,52.0,-100.00,NNE,17,8.0,17.0,79,0.00,,,0.00,959.000000,,2013-07-14 22:42:00,
2013-07-14 15:53:00,58.0,52.0,-100.00,NNE,17,8.0,17.0,79,0.00,,,0.00,959.000000,,2013-07-14 22:53:00,
2013-07-14 16:01:00,58.0,52.0,-100.00,NNE,17,8.0,17.0,79,0.00,,,0.00,959.000000,,2013-07-14 23:01:00,
2013-07-14 16:11:00,58.0,52.0,-100.00,NNE,17,8.0,17.0,79,0.00,,,0.00,959.000000,,2013-07-14 23:11:00,
2013-07-14 16:42:00,59.0,51.0,-100.00,NNE,18,8.0,15.0,76,0.00,,,0.00,846.000000,,2013-07-14 23:42:00,
2013-07-14 16:53:00,59.0,51.0,-100.00,NNE,18,8.0,15.0,76,0.00,,,0.00,846.000000,,2013-07-14 23:53:00,
2013-07-14 17:02:00,59.0,51.0,-100.00,NNE,18,8.0,15.0,76,0.00,,,0.00,846.000000,,2013-07-15 00:02:00,
2013-07-14 17:11:00,59.0,51.0,-100.00,NNE,18,8.0,15.0,76,0.00,,,0.00,846.000000,,2013-07-15 00:11:00,
2013-07-14 18:32:00,57.0,51.0,-100.00,NNE,16,7.0,15.0,81,-99.99,,,0.00,505.000000,,2013-07-15 01:32:00,
2013-07-14 18:43:00,57.0,51.0,-100.00,NNE,16,7.0,15.0,81,-99.99,,,0.00,505.000000,,2013-07-15 01:43:00,
2013-07-14 18:53:00,57.0,51.0,-100.00,NNE,16,7.0,15.0,81,-99.99,,,0.00,505.000000,,2013-07-15 01:53:00,
2013-07-14 19:02:00,57.0,51.0,-100.00,NNE,16,7.0,15.0,81,-99.99,,,0.00,505.000000,,2013-07-15 02:02:00,
2013-07-14 19:11:00,57.0,51.0,-100.00,NNE,16,7.0,15.0,81,-99.99,,,0.00,505.000000,,2013-07-15 02:11:00,
2013-07-14 19:42:00,55.0,50.0,-100.00,NNE,13,7.0,14.0,84,0.00,,,0.00,306.000000,,2013-07-15 02:42:00,
2013-07-14 19:53:00,55.0,50.0,-100.00,NNE,13,7.0,14.0,84,0.00,,,0.00,306.000000,,2013-07-15 02:53:00,
2013-07-14 20:02:00,55.0,50.0,-100.00,NNE,13,7.0,14.0,84,0.00,,,0.00,306.000000,,2013-07-15 03:02:00,
2013-07-14 20:11:00,55.0,50.0,-100.00,NNE,13,7.0,14.0,84,0.00,,,0.00,306.000000,,2013-07-15 03:11:00,
2013-07-14 20:43:00,53.0,51.0,-100.00,NNE,15,7.0,14.0,92,0.00,,,0.00,104.000000,,2013-07-15 03:43:00,
2013-07-14 20:53:00,53.0,51.0,-100.00,NNE,15,7.0,14.0,92,0.00,,,0.00,104.000000,,2013-07-15 03:53:00,
2013-07-14 21:01:00,53.0,51.0,-100.00,NNE,15,7.0,14.0,92,0.00,,,0.00,104.000000,,2013-07-15 04:01:00,
2013-07-14 21:11:00,53.0,51.0,-100.00,NNE,15,7.0,14.0,92,0.00,,,0.00,104.000000,,2013-07-15 04:11:00,
2013-07-14 21:33:00,51.0,50.0,-100.00,NNE,18,8.0,14.0,95,0.00,,,0.00,14.000000,,2013-07-15 04:33:00,
2013-07-14 21:42:00,51.0,50.0,-100.00,NNE,18,8.0,14.0,95,0.00,,,0.00,14.000000,,2013-07-15 04:42:00,
2013-07-14 21:53:00,51.0,50.0,-100.00,NNE,18,8.0,14.0,95,0.00,,,0.00,14.000000,,2013-07-15 04:53:00,
2013-07-14 22:02:00,51.0,50.0,-100.00,NNE,18,8.0,14.0,95,0.00,,,0.00,14.000000,,2013-07-15 05:02:00,
2013-07-14 22:11:00,51.0,50.0,-100.00,NNE,18,8.0,14.0,95,0.00,,,0.00,14.000000,,2013-07-15 05:11:00,
2013-07-14 22:43:00,51.0,50.0,-100.00,NNE,19,7.0,12.0,95,0.00,,,-99.99,0.000000,,2013-07-15 05:43:00,
2013-07-14 22:53:00,51.0,50.0,-100.00,NNE,19,7.0,12.0,95,0.00,,,-99.99,0.000000,,2013-07-15 05:53:00,
2013-07-14 23:02:00,51.0,50.0,-100.00,NNE,19,7.0,12.0,95,0.00,,,-99.99,0.000000,,2013-07-15 06:02:00,
2013-07-14 23:11:00,51.0,50.0,-100.00,NNE,19,7.0,12.0,95,0.00,,,-99.99,0.000000,,2013-07-15 06:11:00,
2013-07-14 23:42:00,51.0,50.0,-100.00,NNE,18,6.0,12.0,97,0.00,,,0.00,0.000000,,2013-07-15 06:42:00,
2013-07-14 23:53:00,51.0,50.0,-100.00,NNE,18,6.0,12.0,97,0.00,,,0.00,0.000000,,2013-07-15 06:53:00,